Date,TemperatureHighF,TemperatureAvgF,TemperatureLowF,DewpointHighF,DewpointAvgF,DewpointLowF,HumidityHigh,HumidityAvg,HumidityLow,PressureMaxIn,PressureMinIn,WindSpeedMaxMPH,WindSpeedAvgMPH,GustSpeedMaxMPH,PrecipitationSumIn
2012-1-1,34.0,29.0,26.8,33.2,27.5,25.0,97,94,91,30.02,29.39,2,0,12,0.11
2012-1-2,35.3,27.0,10.4,35.3,21.3,1.6,100,79,61,29.74,29.35,14,5,27,0.00
2012-1-3,10.4,0.7,-7.7,3.2,-7.8,-12.7,78,67,58,30.20,29.74,12,3,21,0.00
2012-1-4,12.3,-0.2,-12.3,8.4,-5.0,-17.0,85,80,70,30.21,29.75,1,0,4,0.01
2012-1-5,22.8,13.7,4.4,15.3,8.6,0.6,94,80,62,29.90,29.71,10,1,22,0.02
2012-1-6,16.2,9.7,4.8,13.3,6.1,1.2,93,85,76,29.89,29.67,1,0,7,0.06
2012-1-7,30.0,21.1,14.0,28.5,18.6,10.8,95,90,86,29.84,29.66,12,0,24,0.02
2012-1-8,29.7,18.5,12.8,26.9,12.3,8.3,89,77,62,30.30,29.85,12,1,20,0.00
2012-1-9,25.3,18.0,11.2,23.3,14.4,7.6,92,86,80,30.27,29.75,0,0,5,0.00
2012-1-10,33.9,24.6,7.6,31.1,20.3,3.7,95,84,67,30.06,29.63,14,2,24,0.12
2012-1-11,13.5,6.7,-0.2,6.8,-1.9,-4.9,85,68,50,30.21,29.96,1,0,9,0.00
2012-1-12,20.3,17.6,11.8,18.3,13.9,1.4,92,86,63,30.01,29.47,5,1,16,0.47
2012-1-13,28.1,22.1,12.7,26.9,20.1,8.5,95,92,82,29.52,29.05,13,1,20,0.74
2012-1-14,12.7,0.2,-6.7,8.7,-5.5,-11.5,84,76,69,30.18,29.52,12,2,20,0.00
2012-1-15,6.7,-7.2,-20.8,-1.5,-12.4,-25.6,91,77,65,30.56,30.18,10,0,16,0.00
2012-1-16,13.3,-1.5,-17.2,9.4,-6.0,-21.8,86,81,75,30.56,29.95,0,0,4,0.00
2012-1-17,25.6,21.3,13.3,24.1,19.0,9.4,94,91,84,29.95,29.13,3,0,10,0.43
2012-1-18,32.1,8.6,-7.1,31.1,1.8,-11.4,96,74,59,30.21,29.10,15,4,33,0.02
2012-1-19,17.0,1.8,-13.9,14.3,-3.2,-18.5,89,79,70,30.21,29.80,2,0,12,0.07
2012-1-20,20.0,4.2,-12.7,17.8,-2.0,-17.2,91,76,58,30.34,29.80,10,2,20,0.00
2012-1-21,12.4,-1.1,-12.3,1.4,-7.6,-16.7,82,74,58,30.42,30.25,1,0,2,0.00
2012-1-22,15.9,2.3,-13.5,6.9,-3.5,-17.9,87,76,65,30.57,30.32,1,0,4,0.00
2012-1-23,33.7,24.3,13.1,33.0,20.6,6.8,97,86,74,30.32,29.67,1,0,6,0.48
2012-1-24,35.8,33.0,30.0,35.0,30.5,24.6,97,91,80,29.98,29.67,9,2,22,0.03
2012-1-25,30.0,22.4,15.5,24.3,14.8,9.9,82,72,61,30.26,29.98,13,2,22,0.00
2012-1-26,22.2,13.6,1.0,15.5,6.9,-2.5,89,75,55,30.27,29.87,2,0,7,0.05
2012-1-27,30.2,25.9,18.2,28.9,24.1,15.5,100,93,89,29.87,29.28,6,1,16,0.69
2012-1-28,31.4,27.7,21.0,30.1,25.9,18.5,95,93,88,29.91,29.54,10,0,24,0.09
2012-1-29,29.5,24.7,15.3,27.8,21.4,12.7,94,87,77,29.88,29.57,9,2,26,0.00
2012-1-30,18.5,10.8,0.5,13.7,5.4,-3.0,94,79,60,30.23,29.88,8,1,20,0.00
2012-1-31,18.9,14.9,4.5,18.2,11.6,0.8,100,86,78,30.22,29.90,1,0,9,0.21
2012-2-1,25.9,21.4,18.5,23.7,19.3,16.3,93,91,87,30.02,29.73,7,0,12,0.04
2012-2-2,22.6,17.2,3.0,18.2,13.6,-0.3,92,86,76,30.34,30.03,1,0,4,0.00
2012-2-3,23.7,14.4,-0.1,20.6,11.2,-3.5,92,87,83,30.41,30.25,5,0,12,0.00
2012-2-4,23.1,15.3,5.8,20.7,10.3,2.5,91,80,69,30.33,30.20,7,1,20,0.00
2012-2-5,25.7,12.5,-4.0,22.4,8.2,-7.7,90,83,76,30.23,29.90,9,1,21,0.00
2012-2-6,34.3,31.0,24.9,28.7,26.5,21.8,91,83,76,29.90,29.76,9,2,20,0.00
2012-2-7,32.2,18.3,1.3,25.8,6.8,-6.5,77,61,37,30.28,29.87,9,1,20,0.00
2012-2-8,24.8,11.4,-7.2,16.0,2.9,-11.7,84,69,51,30.28,29.99,9,1,22,0.00
2012-2-9,32.9,24.6,17.6,22.4,18.9,14.8,89,79,64,30.01,29.94,8,1,20,0.00
2012-2-10,33.6,28.0,23.1,24.6,21.7,16.9,90,78,62,29.96,29.86,8,1,23,0.00
2012-2-11,23.1,8.5,-3.5,16.4,0.5,-8.4,85,70,50,29.94,29.84,2,0,9,0.01
2012-2-12,9.9,3.0,-8.6,3.9,-6.1,-13.2,81,66,49,29.86,29.78,13,1,20,0.00
2012-2-13,25.3,14.3,4.6,10.5,5.4,-0.2,80,68,45,29.89,29.73,12,1,20,0.00
2012-2-14,32.1,16.1,-3.7,25.0,9.5,-7.6,94,76,52,30.03,29.89,1,0,5,0.00
2012-2-15,34.6,30.6,26.2,32.5,27.9,23.1,94,90,85,30.22,30.03,0,0,3,0.01
2012-2-16,40.3,34.4,31.6,32.5,30.1,28.1,94,85,62,30.23,29.82,1,0,12,0.03
2012-2-17,36.2,32.8,28.0,32.4,28.2,23.5,95,84,61,29.84,29.75,8,2,23,0.14
2012-2-18,33.5,28.5,18.2,25.6,21.8,13.9,90,76,59,30.05,29.83,9,1,16,0.00
2012-2-19,29.9,20.2,12.0,15.4,12.1,6.9,89,72,52,30.11,30.03,9,1,17,0.00
2012-2-20,30.0,15.0,-0.5,17.0,8.1,-4.4,88,75,57,30.30,30.10,7,0,17,0.00
2012-2-21,30.6,20.0,4.4,24.0,14.6,1.1,89,80,67,30.30,29.68,3,0,7,0.00
2012-2-22,41.0,31.8,26.1,34.6,28.2,23.2,94,87,68,29.68,29.41,8,1,21,0.16
2012-2-23,38.3,31.4,23.0,30.1,26.9,20.2,94,84,64,29.73,29.37,10,1,20,0.00
2012-2-24,31.1,25.7,17.1,29.3,23.1,14.7,96,90,77,29.75,29.14,6,0,15,0.71
2012-2-25,31.1,25.7,14.3,30.1,21.9,6.9,97,86,70,29.88,29.03,20,4,32,0.08
2012-2-26,22.7,14.0,5.6,8.2,4.0,-2.0,83,65,49,30.45,29.88,10,2,18,0.00
2012-2-27,21.0,15.0,7.0,17.0,9.3,2.3,89,78,59,30.43,29.98,5,0,13,0.09
2012-2-28,27.7,18.3,8.2,17.5,10.7,3.9,91,73,49,30.42,30.06,9,2,17,0.00
2012-2-29,26.2,14.9,-0.7,13.1,6.1,-4.1,88,69,52,30.37,29.95,6,1,14,0.00
2012-3-1,19.8,18.1,16.6,16.4,14.7,10.7,90,87,68,29.98,29.84,7,2,20,0.27
2012-3-2,25.3,21.0,17.0,23.6,18.5,14.2,93,90,85,30.02,29.71,2,0,12,0.00
2012-3-3,40.4,31.8,25.2,35.4,27.9,23.1,99,86,63,29.71,29.19,18,4,37,0.35
2012-3-4,27.0,17.7,4.2,23.7,9.4,-1.3,88,70,54,29.70,29.43,10,2,23,0.00
2012-3-5,18.2,6.1,-4.3,3.8,-2.2,-8.7,82,69,51,30.36,29.70,10,1,20,0.00
2012-3-6,24.6,8.6,-11.5,8.0,-1.4,-15.9,86,66,38,30.57,30.36,3,0,13,0.00
2012-3-7,52.2,34.5,18.2,32.3,21.0,5.9,78,59,42,30.41,29.92,9,0,18,0.00
2012-3-8,50.5,44.2,31.2,45.3,37.5,29.4,97,79,57,29.92,29.51,9,3,23,0.73
2012-3-9,31.2,23.7,17.3,28.7,17.8,14.4,92,79,61,30.18,29.70,9,1,18,0.00
2012-3-10,28.4,21.7,13.1,17.4,12.6,6.7,90,68,55,30.52,30.18,7,1,15,0.00
2012-3-11,48.0,32.4,14.0,33.5,24.3,10.9,90,73,55,30.34,30.13,8,1,20,0.00
2012-3-12,50.8,39.8,26.8,35.5,30.8,24.8,94,72,50,30.24,30.02,1,0,6,0.00
2012-3-13,41.5,37.3,31.9,38.9,34.0,30.9,98,88,66,30.02,29.80,15,0,22,0.34
2012-3-14,34.3,32.0,29.3,32.9,30.7,27.0,96,95,91,30.30,29.92,1,0,9,0.11
2012-3-15,36.5,31.2,27.6,31.8,28.0,25.4,94,88,75,30.37,30.16,6,0,13,0.06
2012-3-16,42.5,36.0,32.7,39.3,34.4,31.4,96,94,87,30.25,30.05,1,0,7,0.07
2012-3-17,49.7,38.9,27.4,43.1,33.8,26.2,97,83,60,30.34,30.16,1,0,6,0.00
2012-3-18,67.7,47.1,33.0,51.2,40.4,31.5,96,80,54,30.17,30.02,5,0,13,0.00
2012-3-19,59.6,45.9,35.6,51.3,41.5,34.1,97,85,68,30.19,30.04,2,0,9,0.00
2012-3-20,72.0,49.8,32.8,55.7,43.0,31.5,97,80,56,30.25,30.15,7,0,12,0.00
2012-3-21,76.6,53.0,36.0,58.4,46.2,34.7,100,81,47,30.26,30.12,8,1,16,0.00
2012-3-22,72.8,55.1,39.3,56.2,48.2,37.9,97,79,55,30.13,30.04,8,1,14,0.00
2012-3-23,60.1,47.0,33.9,40.7,29.5,19.0,96,58,22,30.21,30.12,8,0,15,0.00
2012-3-24,41.1,38.2,34.2,28.1,19.0,14.8,64,46,37,30.21,29.98,1,0,10,0.00
2012-3-25,49.1,38.6,32.8,42.3,32.8,17.0,94,81,41,29.98,29.67,3,0,12,0.10
2012-3-26,43.1,27.9,20.1,36.3,8.9,-1.8,77,46,27,30.21,29.69,18,7,30,0.00
2012-3-27,40.8,28.2,16.0,15.7,4.8,-1.8,51,37,23,30.36,30.05,8,1,20,0.00
2012-3-28,33.3,29.8,26.2,31.7,27.0,14.7,94,90,49,30.10,29.50,2,0,14,0.31
2012-3-29,37.9,33.8,30.0,31.4,26.6,17.0,93,76,58,29.99,29.64,12,2,20,0.00
2012-3-30,41.7,30.0,19.5,20.7,15.9,11.2,74,57,36,30.11,29.99,10,2,20,0.00
2012-3-31,46.7,33.8,24.5,22.8,18.4,15.0,79,55,33,30.05,29.88,2,0,9,0.00
2012-4-1,39.9,31.9,23.4,35.6,26.6,18.7,93,81,53,29.88,29.66,2,0,7,0.24
2012-4-2,45.3,34.6,27.6,29.7,20.5,9.1,94,62,24,29.89,29.71,12,1,21,0.00
2012-4-3,50.2,37.4,26.2,21.8,14.5,10.4,60,40,27,29.96,29.73,8,1,17,0.00
2012-4-4,45.5,39.1,31.6,28.5,24.5,17.9,68,56,43,29.73,29.56,14,3,24,0.00
2012-4-5,44.4,36.8,32.1,23.9,21.4,18.8,66,54,40,29.92,29.72,12,2,22,0.00
2012-4-6,46.2,37.2,27.7,19.8,17.1,13.3,62,45,29,30.04,29.92,13,2,20,0.00
2012-4-7,48.4,39.5,29.6,25.9,19.7,13.6,56,45,39,30.10,30.02,7,0,13,0.00
2012-4-8,55.4,45.4,37.6,28.9,26.0,23.3,59,47,34,30.03,29.46,10,1,18,0.00
2012-4-9,46.9,42.0,37.7,34.5,31.6,28.2,83,67,55,29.46,29.34,14,3,23,0.00
2012-4-10,47.4,39.0,31.0,39.1,34.0,29.5,94,83,58,29.72,29.43,12,1,17,0.06
2012-4-11,51.5,40.2,30.6,36.8,33.2,29.1,96,78,51,29.99,29.69,3,0,13,0.01
2012-4-12,55.6,43.9,33.8,33.6,29.2,26.0,75,58,34,30.08,29.99,5,1,13,0.00
2012-4-13,61.0,46.1,31.2,27.5,24.4,21.4,79,46,24,30.15,29.99,12,2,21,0.00
2012-4-14,61.9,46.5,30.7,35.4,30.5,23.9,80,56,34,30.06,29.86,8,1,18,0.00
2012-4-15,63.2,51.0,37.2,54.7,45.8,32.2,91,83,68,29.89,29.82,8,1,20,0.00
2012-4-16,81.9,65.1,55.0,62.3,57.9,53.3,97,80,47,29.86,29.63,9,1,26,0.11
2012-4-17,61.4,49.0,34.4,60.2,35.1,22.3,96,60,43,30.27,29.69,15,5,28,0.01
2012-4-18,54.2,38.5,25.4,30.3,25.7,21.2,85,62,37,30.36,30.09,3,0,9,0.00
2012-4-19,68.1,47.5,28.3,43.8,34.7,25.5,90,65,39,30.09,29.82,12,1,20,0.00
2012-4-20,51.4,42.1,38.6,40.1,36.4,33.3,91,81,59,29.99,29.71,3,0,15,0.06
2012-4-21,41.4,38.9,33.8,39.9,37.1,32.5,98,93,90,29.96,29.68,3,0,10,0.54
2012-4-22,43.2,37.6,32.5,34.2,32.3,31.0,96,82,67,30.03,29.93,3,0,16,0.02
2012-4-23,39.3,35.3,31.8,38.2,33.7,30.4,100,94,90,29.93,29.22,8,2,24,1.36
2012-4-24,47.5,41.2,36.6,40.3,36.6,32.3,97,85,61,29.50,29.19,9,0,20,0.18
2012-4-25,49.1,41.1,36.3,38.4,33.6,30.3,94,76,52,29.83,29.50,6,0,17,0.02
2012-4-26,50.2,39.5,27.5,39.8,33.2,25.8,95,80,54,29.85,29.54,3,0,10,0.10
2012-4-27,39.7,33.3,29.6,37.9,25.9,19.4,94,75,62,30.08,29.55,17,6,28,0.04
2012-4-28,44.5,33.7,25.1,19.8,14.9,10.6,68,48,27,30.16,30.06,15,5,23,0.00
2012-4-29,46.5,36.4,25.3,17.6,13.2,7.3,65,41,24,30.26,30.07,14,3,24,0.00
2012-4-30,57.4,43.1,25.3,30.3,24.5,15.3,79,49,34,30.35,30.08,3,0,10,0.00
2012-5-1,46.9,44.3,40.2,44.6,40.9,28.5,97,89,49,30.08,29.96,1,0,7,0.12
2012-5-2,53.7,47.4,43.8,48.8,45.1,43.0,97,92,81,30.17,30.00,1,0,10,0.00
2012-5-3,58.8,52.8,48.0,53.8,49.7,46.4,96,89,79,30.08,29.92,1,0,7,0.04
2012-5-4,61.5,53.7,44.9,58.4,52.0,40.7,100,94,82,29.98,29.84,5,0,17,0.16
2012-5-5,63.1,47.9,32.6,40.9,35.9,30.8,95,66,38,30.15,29.98,5,0,12,0.00
2012-5-6,65.6,49.5,35.4,38.0,33.2,28.6,90,58,31,30.19,30.09,3,0,12,0.00
2012-5-7,70.3,53.6,32.5,40.1,32.5,28.3,92,52,22,30.14,29.88,2,0,13,0.00
2012-5-8,57.1,50.5,45.1,51.7,47.1,28.8,100,91,34,29.88,29.71,1,0,6,1.25
2012-5-9,67.4,55.7,50.2,57.8,52.6,46.8,100,90,65,29.72,29.52,5,0,15,0.07
2012-5-10,51.9,48.3,45.3,48.0,43.8,37.7,95,84,74,29.64,29.45,12,1,20,0.00
2012-5-11,63.2,52.9,40.6,37.9,32.3,27.4,78,50,27,29.99,29.64,13,3,25,0.00
2012-5-12,76.6,58.0,34.5,54.2,41.5,30.8,88,59,28,30.06,29.98,7,1,20,0.00
2012-5-13,72.6,60.2,44.3,55.7,47.0,35.2,97,67,28,30.10,30.02,7,0,13,0.26
2012-5-14,75.9,59.8,39.0,51.1,44.8,37.2,95,63,32,30.10,29.96,2,0,12,0.00
2012-5-15,69.6,60.0,49.8,61.6,55.7,47.9,96,86,72,30.00,29.85,0,0,5,0.00
2012-5-16,71.8,60.2,48.7,60.7,53.9,39.4,100,81,54,29.86,29.68,9,1,24,0.01
2012-5-17,59.4,49.3,36.2,39.6,35.7,32.8,90,62,40,30.13,29.86,9,2,21,0.00
2012-5-18,70.6,53.2,34.7,46.6,39.9,33.2,96,66,31,30.20,30.10,5,0,20,0.00
2012-5-19,82.7,64.1,47.7,52.3,48.4,42.7,89,61,32,30.14,30.05,3,0,14,0.00
2012-5-20,90.1,70.5,49.7,62.4,54.3,47.5,94,62,28,30.18,30.09,2,0,13,0.00
2012-5-21,85.9,70.6,53.8,61.2,56.4,52.3,96,65,35,30.13,29.93,1,0,12,0.00
2012-5-22,74.2,62.4,53.3,67.0,60.2,51.3,97,92,77,29.93,29.81,3,0,12,0.76
2012-5-23,70.8,58.6,48.5,57.7,52.9,46.8,95,83,61,30.01,29.87,1,0,7,0.00
2012-5-24,82.9,66.6,48.8,66.7,58.5,47.7,97,77,56,30.09,29.99,0,0,9,0.00
2012-5-25,80.5,68.1,55.8,67.3,62.4,54.7,100,83,61,30.06,29.79,5,0,20,0.19
2012-5-26,74.6,63.2,50.9,59.8,51.5,44.9,97,70,42,30.15,29.90,9,1,17,0.00
2012-5-27,71.0,59.7,48.8,52.6,45.6,37.6,87,62,37,30.21,30.01,1,0,8,0.00
2012-5-28,61.0,56.7,51.2,50.4,46.4,43.4,78,69,57,30.03,29.80,2,0,14,0.00
2012-5-29,80.1,61.2,49.6,70.0,57.0,43.9,100,87,68,29.80,29.54,2,0,7,1.36
2012-5-30,75.3,64.2,51.6,63.5,52.5,48.1,100,69,44,29.70,29.54,7,1,19,0.00
2012-5-31,66.6,57.8,48.5,50.6,45.1,39.8,89,65,39,29.99,29.70,7,0,14,0.00
2012-6-1,64.7,56.1,42.5,50.1,43.0,36.8,85,63,39,30.08,29.86,1,0,13,0.00
2012-6-2,57.5,52.5,50.7,52.9,51.2,49.3,100,95,74,29.87,29.73,2,0,12,1.63
2012-6-3,62.6,54.7,51.2,56.1,52.0,47.8,100,91,76,29.75,29.67,3,0,16,0.00
2012-6-4,61.8,52.7,47.9,51.6,47.9,46.0,96,84,64,29.90,29.75,3,0,14,0.03
2012-6-5,72.6,58.7,45.8,53.4,47.4,43.5,98,71,37,29.95,29.85,7,0,17,0.01
2012-6-6,69.8,57.2,47.1,53.7,49.2,44.0,95,77,52,29.97,29.90,1,0,10,0.08
2012-6-7,75.4,63.6,47.0,57.4,53.3,45.9,96,72,48,29.97,29.82,8,0,20,0.09
2012-6-8,70.2,57.4,49.1,61.3,54.4,46.9,100,90,67,29.84,29.69,5,0,20,0.19
2012-6-9,75.6,60.9,45.2,55.0,46.8,42.9,97,65,32,29.93,29.79,7,0,16,0.00
2012-6-10,81.1,64.7,45.9,57.4,50.4,43.1,93,64,34,30.09,29.93,2,0,7,0.00
2012-6-11,86.6,71.1,56.1,69.2,61.2,51.7,90,72,54,30.12,29.94,2,0,7,0.00
2012-6-12,73.0,65.4,62.8,65.6,63.1,60.9,100,93,75,29.94,29.75,1,0,7,1.45
2012-6-13,71.1,63.0,52.6,63.7,54.2,44.3,100,75,46,30.17,29.73,13,2,24,0.01
2012-6-14,74.3,61.9,46.0,54.6,47.7,42.0,90,62,41,30.33,30.17,2,0,9,0.00
2012-6-15,75.3,62.3,47.7,54.8,49.7,45.8,94,67,41,30.36,30.25,3,0,12,0.00
2012-6-16,77.8,64.1,49.8,61.6,54.2,46.9,93,72,48,30.30,30.11,2,0,9,0.00
2012-6-17,82.2,68.6,53.0,67.1,60.5,51.6,97,77,57,30.11,29.90,2,0,9,0.00
2012-6-18,80.8,69.0,55.7,63.6,59.6,54.6,97,74,48,29.97,29.90,1,0,7,0.00
2012-6-19,79.8,70.0,62.7,71.0,64.9,58.6,94,84,72,29.97,29.86,5,0,12,0.00
2012-6-20,90.0,78.2,65.8,74.6,70.4,64.7,100,79,56,29.95,29.79,6,0,13,0.00
2012-6-21,92.8,81.3,66.2,75.2,69.1,63.3,91,68,50,29.81,29.63,6,0,14,0.00
2012-6-22,83.7,74.2,62.7,65.5,60.7,54.0,90,65,41,29.78,29.64,12,1,20,0.00
2012-6-23,80.4,68.8,57.8,56.2,51.3,42.6,84,58,27,29.94,29.78,3,0,14,0.00
2012-6-24,82.9,67.1,53.9,59.5,53.3,47.2,85,64,36,29.94,29.78,8,0,20,0.00
2012-6-25,65.3,60.3,56.8,62.5,55.9,51.7,97,86,73,29.78,29.64,8,1,18,0.47
2012-6-26,63.3,58.9,55.9,54.6,52.8,50.7,86,80,71,29.69,29.58,8,2,21,0.03
2012-6-27,69.0,63.7,59.7,58.4,55.2,52.8,81,74,66,29.69,29.53,10,2,26,0.01
2012-6-28,83.5,70.2,61.0,61.5,57.1,51.9,87,66,34,29.71,29.58,7,1,18,0.00
2012-6-29,87.0,71.9,59.9,70.6,61.6,56.5,97,74,38,29.58,29.44,9,1,24,0.15
2012-6-30,85.4,70.8,57.8,63.4,59.4,54.6,91,69,42,29.65,29.50,6,1,24,0.00
2012-7-1,77.1,68.1,58.8,60.2,57.8,56.1,93,71,52,29.83,29.65,7,1,16,0.00
2012-7-2,81.7,68.0,55.9,61.8,55.6,49.8,93,68,37,29.88,29.80,10,1,20,0.00
2012-7-3,83.9,68.0,51.9,63.0,56.4,49.6,94,69,41,29.92,29.72,3,0,14,0.07
2012-7-4,83.6,67.9,60.6,70.2,63.7,56.9,97,87,62,29.74,29.59,5,0,17,0.66
2012-7-5,81.1,68.1,52.9,66.4,60.2,51.5,97,77,56,29.85,29.74,1,0,5,0.00
2012-7-6,84.7,71.9,56.2,73.7,65.0,55.1,97,80,60,29.86,29.71,5,0,12,0.00
2012-7-7,84.7,74.4,64.1,68.5,60.5,56.9,90,63,41,29.80,29.72,8,1,15,0.00
2012-7-8,75.1,64.9,53.4,57.0,49.6,45.3,93,61,38,29.88,29.79,9,1,20,0.00
2012-7-9,75.4,61.3,45.3,50.9,46.1,42.9,94,62,32,29.97,29.87,7,0,20,0.00
2012-7-10,79.0,65.4,47.9,54.2,49.2,43.5,94,60,37,30.09,29.94,8,1,17,0.00
2012-7-11,84.3,67.8,49.4,53.6,48.2,43.6,82,54,28,30.15,30.06,5,0,14,0.00
2012-7-12,89.6,71.7,51.1,60.9,54.5,48.9,94,60,30,30.08,30.01,5,0,16,0.00
2012-7-13,92.6,75.5,56.4,65.9,58.6,54.1,93,61,32,30.09,30.01,5,0,14,0.00
2012-7-14,95.0,79.6,60.9,67.4,61.9,57.3,89,59,34,30.05,29.97,5,0,16,0.00
2012-7-15,88.4,75.2,66.7,70.7,65.4,62.6,96,74,45,30.01,29.82,2,0,13,0.17
2012-7-16,82.6,72.8,63.7,70.1,65.1,62.0,100,79,52,29.83,29.72,6,0,14,0.39
2012-7-17,77.8,68.1,62.7,75.1,65.2,60.5,100,91,77,29.74,29.53,7,0,15,1.68
2012-7-18,74.0,65.3,53.9,61.9,54.5,49.6,96,70,45,29.95,29.70,10,1,22,0.00
2012-7-19,73.5,61.3,49.4,53.4,49.1,46.5,90,67,41,30.06,29.95,5,0,14,0.00
2012-7-20,77.6,63.9,50.2,55.5,51.0,46.6,89,66,43,30.10,30.02,2,0,7,0.00
2012-7-21,81.7,66.9,50.9,61.0,54.3,48.4,94,68,37,30.07,29.93,6,0,9,0.01
2012-7-22,88.0,72.7,57.8,68.5,63.2,55.3,93,74,48,29.99,29.91,6,0,18,0.00
2012-7-23,86.4,70.5,60.5,72.0,64.7,58.8,97,84,55,29.92,29.58,6,0,16,1.01
2012-7-24,72.8,66.7,61.1,67.3,58.7,51.5,100,78,50,29.78,29.54,8,0,23,0.00
2012-7-25,77.5,65.1,51.4,57.9,53.7,49.5,95,69,41,29.88,29.70,5,0,13,0.00
2012-7-26,72.7,64.9,60.0,62.5,59.4,56.3,94,83,65,29.71,29.58,0,0,5,0.00
2012-7-27,81.0,68.4,58.2,65.5,60.7,56.2,96,78,54,29.91,29.64,0,0,5,0.00
2012-7-28,81.2,68.2,57.3,61.0,55.9,50.6,90,67,44,30.02,29.91,3,0,12,0.00
2012-7-29,83.8,69.7,55.4,64.1,58.2,50.9,91,69,44,30.02,29.94,2,0,8,0.00
2012-7-30,86.0,70.6,56.0,64.6,59.7,54.6,97,72,42,30.01,29.92,5,0,13,0.00
2012-7-31,87.0,69.9,56.7,70.6,63.1,55.2,96,81,57,29.94,29.78,5,0,18,0.28
2012-8-1,82.2,70.3,63.3,69.6,65.9,62.4,100,87,59,29.81,29.74,2,0,12,0.01
2012-8-2,85.2,73.4,60.6,68.2,63.3,58.5,100,73,48,29.81,29.74,3,0,14,0.00
2012-8-3,82.8,72.3,61.6,64.3,61.4,58.5,94,70,46,30.07,29.76,8,1,16,0.00
2012-8-4,88.0,73.0,57.8,69.9,63.1,56.1,95,73,51,30.16,30.00,1,0,12,0.00
2012-8-5,79.4,71.3,64.8,76.1,69.2,63.4,97,93,82,30.00,29.66,8,0,21,1.06
2012-8-6,74.8,63.9,55.1,64.6,56.3,53.7,97,78,51,29.97,29.78,7,0,18,0.01
2012-8-7,81.0,65.4,51.6,65.9,59.2,50.5,97,82,54,29.93,29.84,13,0,25,0.13
2012-8-8,81.8,66.4,54.0,66.2,60.5,52.9,100,83,52,29.96,29.89,0,0,2,0.01
2012-8-9,73.4,65.8,62.0,65.9,62.3,60.1,96,89,73,29.94,29.87,1,0,5,0.10
2012-8-10,65.1,62.2,60.1,64.2,61.1,59.2,97,96,88,29.87,29.81,1,0,14,0.34
2012-8-11,74.8,63.9,59.5,70.0,63.0,59.2,100,97,84,29.85,29.77,1,0,11,0.91
2012-8-12,78.0,67.9,61.5,67.3,64.1,60.1,100,89,66,29.86,29.79,2,0,13,0.22
2012-8-13,75.4,67.0,59.4,68.1,63.3,58.5,100,89,71,29.89,29.82,5,0,17,0.01
2012-8-14,77.2,66.8,60.1,68.4,63.6,59.2,100,90,62,29.89,29.83,6,0,12,0.10
2012-8-15,78.0,67.3,60.8,67.6,63.3,58.3,96,88,57,29.87,29.79,2,0,10,0.88
2012-8-16,81.2,67.5,57.3,66.4,60.9,55.9,97,81,46,29.89,29.76,3,0,10,0.00
2012-8-17,74.7,62.7,54.8,68.0,59.7,52.8,100,90,65,29.78,29.63,7,0,13,0.14
2012-8-18,70.7,59.1,48.7,55.2,49.8,45.3,97,74,42,29.90,29.75,8,0,16,0.00
2012-8-19,75.1,59.2,44.8,58.8,51.8,43.5,97,79,48,29.95,29.85,5,0,15,0.00
2012-8-20,75.5,61.2,49.4,60.5,51.1,46.5,100,73,40,29.87,29.80,5,0,14,0.00
2012-8-21,74.1,61.0,48.9,57.7,52.3,46.4,93,75,53,30.03,29.87,5,0,14,0.04
2012-8-22,76.0,63.2,51.4,62.0,55.6,50.0,100,79,47,30.07,29.99,5,0,15,0.00
2012-8-23,77.1,65.6,57.6,64.6,59.1,54.6,93,80,62,30.09,29.99,3,0,14,0.05
2012-8-24,79.6,65.8,51.7,65.2,57.6,50.3,97,77,49,30.19,30.09,0,0,1,0.00
2012-8-25,86.9,70.4,57.2,68.6,62.0,55.5,95,77,49,30.22,30.13,1,0,9,0.00
2012-8-26,86.2,71.8,60.9,66.7,62.1,58.2,94,74,43,30.23,30.07,3,0,14,0.00
2012-8-27,75.6,67.6,60.2,67.8,63.5,58.2,97,87,71,30.07,29.79,3,0,14,0.00
2012-8-28,71.9,64.3,46.7,66.2,55.3,43.8,97,75,45,29.94,29.74,7,1,21,0.00
2012-8-29,74.8,58.8,42.6,51.2,46.6,41.0,96,68,42,29.96,29.88,10,1,21,0.00
2012-8-30,81.5,65.9,49.4,65.4,56.5,47.0,94,73,52,29.91,29.76,13,1,21,0.00
2012-8-31,77.4,68.2,62.2,67.3,60.6,54.1,95,77,62,29.88,29.71,5,0,24,0.02
2012-9-1,76.7,64.1,51.4,55.4,52.0,47.9,91,67,41,30.11,29.88,3,0,12,0.00
2012-9-2,78.1,59.8,47.5,56.1,50.5,45.9,95,75,38,30.11,30.04,0,0,5,0.00
2012-9-3,80.2,62.6,45.8,59.2,51.6,44.2,96,71,42,30.14,29.98,0,0,3,0.00
2012-9-4,76.1,66.3,57.7,66.2,60.8,52.2,97,83,68,29.99,29.78,0,0,1,0.32
2012-9-5,80.3,68.8,61.0,67.9,64.3,60.1,100,87,62,29.81,29.75,0,0,5,0.09
2012-9-6,79.9,68.4,57.5,68.6,62.5,54.0,100,83,57,29.82,29.72,8,0,16,0.11
2012-9-7,75.9,62.7,51.3,61.7,56.3,49.9,97,81,49,29.87,29.74,2,0,10,0.00
2012-9-8,72.1,62.2,51.4,68.9,59.7,48.0,100,92,78,29.74,29.30,12,1,26,1.30
2012-9-9,59.3,52.8,45.8,49.4,47.2,44.4,98,82,64,29.91,29.62,5,0,16,0.00
2012-9-10,61.0,50.7,40.8,48.7,43.0,38.7,96,77,51,30.10,29.91,7,0,17,0.00
2012-9-11,70.0,53.5,37.3,53.5,46.1,35.7,97,79,50,30.20,30.10,2,0,15,0.00
2012-9-12,78.5,62.4,48.0,62.2,54.2,46.6,97,76,51,30.23,30.15,3,0,15,0.00
2012-9-13,80.9,64.6,50.3,63.3,56.7,48.4,96,77,52,30.23,30.13,3,0,16,0.00
2012-9-14,73.9,63.2,53.3,64.7,58.5,51.9,97,85,70,30.14,29.91,8,0,23,0.33
2012-9-15,59.9,52.8,39.4,55.3,47.0,37.3,97,82,62,30.08,29.93,9,1,20,0.08
2012-9-16,61.8,46.7,33.6,43.8,38.3,32.3,96,75,49,30.10,29.98,7,0,16,0.00
2012-9-17,74.3,55.5,39.7,60.1,50.3,37.9,100,84,58,29.99,29.88,1,0,8,0.00
2012-9-18,63.9,55.9,48.0,63.9,55.2,46.9,100,97,94,29.88,29.34,5,0,15,2.56
2012-9-19,59.0,47.5,37.2,58.3,41.7,35.3,100,82,54,30.19,29.48,7,1,20,0.06
2012-9-20,63.1,47.3,33.7,48.4,41.4,32.4,96,82,53,30.23,30.00,1,0,7,0.00
2012-9-21,56.6,52.2,44.5,55.8,51.2,42.9,97,96,94,30.01,29.91,0,0,6,0.42
2012-9-22,60.2,56.4,52.9,60.2,56.0,51.8,100,99,96,29.92,29.66,1,0,10,0.25
2012-9-23,57.0,48.5,39.7,51.8,42.6,37.6,96,81,53,30.05,29.74,9,1,24,0.01
2012-9-24,57.8,44.8,32.1,46.6,39.4,30.8,97,83,56,30.08,29.92,3,0,15,0.00
2012-9-25,63.6,52.8,44.3,54.0,47.3,41.9,95,82,65,29.95,29.86,2,0,16,0.00
2012-9-26,63.3,51.3,40.5,58.6,48.3,38.6,97,90,72,30.07,29.85,5,0,15,0.00
2012-9-27,58.6,44.7,35.4,44.3,38.3,34.1,97,81,50,30.24,30.07,1,0,7,0.00
2012-9-28,60.2,45.3,33.1,48.9,39.8,31.8,97,83,58,30.23,30.03,1,0,7,0.01
2012-9-29,56.8,49.4,41.6,49.6,46.1,40.0,100,89,73,30.03,29.96,1,0,12,0.02
2012-9-30,51.0,49.5,47.7,50.2,48.5,46.3,97,97,95,29.97,29.55,1,0,12,0.99
2012-10-1,58.6,52.5,46.4,52.8,49.8,45.0,97,91,78,29.84,29.45,9,1,17,0.29
2012-10-2,65.3,51.9,40.9,57.0,49.3,39.9,100,91,72,30.03,29.84,1,0,6,0.00
2012-10-3,65.0,55.7,45.5,56.5,51.9,44.7,100,88,71,30.11,30.03,3,0,14,0.01
2012-10-4,59.4,54.9,52.3,56.1,53.6,51.2,100,95,83,30.11,29.92,0,0,6,0.04
2012-10-5,64.4,56.9,50.8,60.8,55.5,48.1,100,95,82,29.91,29.77,3,0,10,0.02
2012-10-6,53.9,47.5,41.1,49.3,45.0,39.2,97,91,81,29.84,29.68,6,0,16,0.57
2012-10-7,47.6,39.8,33.2,40.2,34.5,31.6,96,82,57,30.05,29.84,5,0,14,0.00
2012-10-8,52.3,39.3,28.6,35.9,31.6,26.9,96,77,44,30.26,30.05,2,0,10,0.00
2012-10-9,57.4,43.5,30.5,43.1,37.5,29.0,96,81,49,30.27,30.01,1,0,6,0.00
2012-10-10,53.7,45.9,39.2,51.2,44.1,37.9,97,94,84,30.01,29.62,7,0,24,0.29
2012-10-11,48.4,40.4,33.8,37.7,33.7,29.4,96,79,48,29.99,29.72,12,2,22,0.27
2012-10-12,40.7,36.1,26.0,39.7,28.5,22.7,96,75,51,30.36,29.83,14,2,22,0.04
2012-10-13,48.2,35.2,22.5,35.4,28.2,20.5,94,77,51,30.39,30.15,7,0,16,0.01
2012-10-14,43.0,38.1,35.6,42.2,37.0,33.6,97,96,87,30.16,29.69,2,0,7,1.27
2012-10-15,60.1,47.3,43.0,53.3,43.9,40.5,100,89,66,29.69,29.50,9,0,23,0.08
2012-10-16,46.0,40.0,31.3,40.6,33.4,28.1,91,78,62,29.85,29.55,12,2,22,0.00
2012-10-17,53.8,40.1,27.5,41.5,34.5,25.4,95,82,58,29.96,29.84,1,0,7,0.00
2012-10-18,64.6,50.6,42.8,47.1,41.9,38.4,92,74,48,29.96,29.86,1,0,12,0.01
2012-10-19,52.2,47.8,42.5,52.2,46.5,40.0,100,95,85,29.95,29.68,2,0,13,1.53
2012-10-20,60.2,50.8,39.6,56.9,49.1,38.3,100,94,69,29.68,29.57,5,0,14,0.32
2012-10-21,51.2,45.8,37.9,44.8,42.1,36.8,97,87,74,29.85,29.63,12,2,22,0.00
2012-10-22,57.4,47.5,39.2,42.2,40.0,37.0,93,76,56,30.03,29.84,12,3,24,0.00
2012-10-23,55.5,41.6,31.3,42.7,35.9,30.0,97,82,49,30.18,30.03,1,0,7,0.00
2012-10-24,49.2,38.1,27.0,37.1,31.0,25.5,96,78,44,30.25,30.16,1,0,5,0.01
2012-10-25,51.2,44.6,37.2,40.0,34.9,30.3,79,69,56,30.24,30.09,1,0,10,0.00
2012-10-26,66.1,50.7,40.6,55.1,47.0,39.0,96,88,67,30.12,30.02,0,0,4,0.00
2012-10-27,55.7,51.6,46.2,51.9,49.1,45.1,100,91,82,30.07,29.97,1,0,10,0.00
2012-10-28,54.4,50.9,48.4,49.9,46.3,43.9,90,85,76,30.05,29.94,2,0,13,0.00
2012-10-29,57.8,52.1,47.0,51.0,47.5,43.6,91,84,77,29.95,29.49,8,2,26,0.01
2012-10-30,63.3,56.7,53.0,59.8,53.8,50.2,97,90,82,29.54,29.46,8,2,28,0.25
2012-10-31,72.2,53.0,42.4,72.2,52.5,41.7,100,98,96,29.48,29.34,3,0,14,0.24
2012-11-1,59.4,43.6,38.5,59.4,42.8,37.7,100,97,94,29.44,29.39,3,0,12,0.21
2012-11-2,56.3,40.5,36.5,56.3,39.5,35.7,100,96,89,29.64,29.42,7,0,12,0.07
2012-11-3,40.1,37.8,35.7,35.7,33.4,30.1,90,84,78,29.86,29.64,9,2,23,0.00
2012-11-4,36.9,34.3,31.7,30.5,26.6,20.5,82,74,63,30.03,29.86,5,0,16,0.00
2012-11-5,33.3,28.9,21.0,22.5,18.5,13.7,81,65,52,30.14,30.02,7,1,17,0.00
2012-11-6,35.7,25.5,16.7,23.8,18.5,13.3,90,75,56,30.24,30.13,2,0,9,0.00
2012-11-7,36.2,26.8,18.3,20.9,18.7,16.1,91,73,50,30.26,30.12,3,0,13,0.00
2012-11-8,40.8,31.3,23.7,26.7,22.8,19.8,86,71,51,30.12,29.99,2,0,14,0.00
2012-11-9,40.6,31.3,21.5,32.2,26.2,19.0,93,82,67,30.10,29.98,9,0,16,0.00
2012-11-10,39.9,31.9,24.3,28.8,22.4,19.9,87,69,46,30.41,30.10,7,0,15,0.02
2012-11-11,41.0,32.8,28.0,33.7,28.2,20.6,96,84,62,30.38,30.25,3,0,9,0.05
2012-11-12,59.5,43.8,28.0,52.3,38.4,27.0,100,83,64,30.25,29.87,7,0,21,0.00
2012-11-13,55.3,35.8,23.7,50.1,28.7,20.5,93,77,46,30.50,29.91,13,3,25,0.10
2012-11-14,39.1,28.1,21.8,23.8,21.1,19.3,91,77,48,30.64,30.50,2,0,7,0.00
2012-11-15,34.1,26.4,20.0,24.9,21.6,18.1,92,82,66,30.57,30.36,3,0,8,0.00
2012-11-16,43.6,28.7,18.0,32.2,23.9,16.1,95,83,63,30.51,30.35,5,0,7,0.00
2012-11-17,35.6,24.5,17.8,23.3,19.8,15.6,94,83,58,30.72,30.51,2,0,6,0.00
2012-11-18,36.9,24.3,15.3,22.1,16.9,13.1,96,76,39,30.74,30.60,2,0,4,0.00
2012-11-19,39.7,26.3,16.9,24.5,19.3,14.4,92,77,49,30.60,30.28,1,0,4,0.00
2012-11-20,40.5,29.7,19.8,29.8,24.7,18.1,96,82,64,30.28,30.17,1,0,3,0.00
2012-11-21,46.3,32.4,25.4,28.9,25.1,22.9,93,77,46,30.25,30.19,2,0,5,0.00
2012-11-22,49.0,34.0,23.5,37.8,29.2,22.0,100,84,55,30.19,29.95,5,0,12,0.00
2012-11-23,48.0,37.9,27.5,43.7,33.9,25.5,100,87,58,29.95,29.50,5,0,9,0.19
2012-11-24,38.6,30.9,24.6,36.4,26.1,17.2,94,82,60,29.64,29.48,12,4,21,0.05
2012-11-25,27.3,22.7,19.2,18.5,14.8,13.1,80,72,57,29.79,29.64,12,4,22,0.00
2012-11-26,29.0,20.0,10.9,14.6,12.5,8.8,91,74,50,30.23,29.79,9,1,15,0.00
2012-11-27,29.2,18.9,10.6,20.0,14.4,8.2,94,83,66,30.30,30.23,3,0,7,0.00
2012-11-28,30.0,24.2,16.5,28.7,21.6,12.5,95,90,72,30.25,30.03,9,1,20,0.05
2012-11-29,28.0,16.6,6.3,23.9,11.8,2.0,94,81,67,30.39,30.03,9,2,19,0.01
2012-11-30,13.6,4.4,-4.9,5.1,-0.8,-8.5,90,79,65,30.64,30.39,1,0,4,0.00
2012-12-1,21.1,11.4,0.8,17.3,5.7,-2.4,89,78,65,30.64,30.32,3,0,10,0.00
2012-12-2,41.6,30.9,21.2,41.6,29.6,17.3,100,95,85,30.32,29.84,2,0,8,0.43
2012-12-3,41.6,35.4,32.3,41.6,33.0,30.8,100,91,81,30.25,29.87,8,1,15,0.00
2012-12-4,45.2,38.4,32.7,45.2,38.0,31.4,100,98,94,30.20,29.78,3,0,8,0.50
2012-12-5,44.1,32.7,25.8,44.1,26.4,16.0,100,78,59,30.25,29.76,10,4,23,0.05
2012-12-6,28.3,23.2,16.0,19.9,17.1,13.3,90,78,66,30.39,30.15,5,0,10,0.00
2012-12-7,35.3,28.5,22.5,29.7,23.5,19.0,91,81,67,30.15,29.97,1,0,5,0.00
2012-12-8,32.6,31.8,31.4,32.4,30.9,29.5,100,97,91,30.00,29.78,3,0,8,0.10
2012-12-9,32.7,26.4,19.6,31.6,23.2,15.6,96,88,83,30.34,29.94,7,1,13,0.00
2012-12-10,30.1,23.6,19.2,30.1,22.4,15.6,100,95,84,30.09,29.57,5,2,15,0.79
2012-12-17,29.7,29.5,29.2,28.4,28.2,27.9,95,95,95,29.86,29.80,2,1,8,0.50
2012-12-18,33.3,32.1,29.6,32.0,30.9,28.3,96,96,95,29.79,29.51,5,1,15,1.05
2012-12-19,38.0,33.7,31.5,35.0,32.2,29.7,96,94,88,30.10,29.56,3,0,6,0.19
2012-12-20,31.8,28.2,26.6,30.8,26.3,24.0,96,93,89,30.22,29.57,7,1,14,0.97
2012-12-21,33.6,32.1,30.0,32.6,31.1,28.5,100,96,94,29.84,28.94,6,2,24,1.46
2012-12-22,32.5,23.8,14.6,32.5,21.8,11.4,100,92,86,29.67,28.99,9,2,16,0.18
2012-12-23,17.7,14.0,8.4,14.2,10.9,5.6,92,87,84,29.87,29.68,6,1,13,0.00
2012-12-24,17.1,9.4,2.3,12.7,6.1,-0.7,92,86,76,30.09,29.87,3,0,7,0.00
2012-12-25,20.7,12.2,5.1,15.6,8.7,2.4,92,86,77,30.37,30.07,3,0,8,0.00
2012-12-26,15.4,6.6,-2.6,12.0,3.0,-6.0,90,85,79,30.41,30.10,3,0,14,0.00
2012-12-27,25.3,22.3,15.6,23.8,20.3,12.0,94,92,85,30.10,29.78,6,2,18,0.68
2012-12-28,25.4,19.2,5.5,23.4,17.0,2.7,93,91,87,30.04,29.89,6,1,12,0.02
2012-12-29,15.8,9.7,-0.8,13.4,7.2,-4.0,92,89,86,30.02,29.72,2,0,7,0.05
2012-12-30,15.5,13.4,9.5,13.4,10.9,6.4,92,89,86,29.89,29.72,6,1,10,0.01